Happy Valentine's Day! 

Flight Track Log - Related Links

Times and Time Zones

All times are in EDT time to prevent confusion due to time zone crossing. See the ASQ5740 flight status page for this flight to view local times or setup timezone preferences in your user account.


Time Position Orientation Groundspeed Altitude Reporting Facility
EDT Latitude Longitude Course Direction KTS MPH feet Rate Location/Type
Sun 10:17:05 AM 42.2289 -83.3539 285° West 163 188 1,100  Level Cleveland Center
Sun 10:18:24 AM 42.3044 -83.3289 14° North 234 269 3,800 2,143 Climbing Cleveland Center
Sun 10:19:25 AM 42.3694 -83.3178 North 259 298 6,100 2,250 Climbing Cleveland Center
Sun 10:20:00 AM 42.2854 -83.6457 283° West  Level FlightAware Approximate
Sun 10:20:56 AM 42.3933 -83.4453 284° West 278 320 9,500  Level Cleveland Center
Sun 10:21:00 AM 42.2983 -83.7232 283° West  Level FlightAware Approximate
Sun 10:21:56 AM 42.3989 -83.5525 274° West 283 326 11,000  Level Cleveland Center
Sun 10:22:00 AM 42.3133 -83.8000 285° West  Level FlightAware Approximate
Sun 10:22:56 AM 42.4061 -83.6708 275° West 299 344 12,700  Level Cleveland Center
Sun 10:23:56 AM 42.4111 -83.7950 273° West 323 372 13,800 1,400 Climbing Cleveland Center
Sun 10:24:56 AM 42.4158 -83.9217 273° West 332 382 15,500 1,550 Climbing Cleveland Center
Sun 10:25:56 AM 42.4200 -84.0625 272° West 339 390 16,900 1,300 Climbing Cleveland Center
Sun 10:26:56 AM 42.4247 -84.1783 273° West 339 390 18,100 1,427 Climbing Cleveland Center
Sun 10:29:01 AM 42.4350 -84.4497 273° West 340 391 21,300 1,412 Climbing Chicago Center
Sun 10:30:03 AM 42.4381 -84.5739 272° West 332 382 22,500 1,113 Climbing Chicago Center
Sun 10:31:05 AM 42.4411 -84.6961 272° West 326 375 23,600 919 Climbing Chicago Center
Sun 10:32:07 AM 42.4436 -84.8208 272° West 331 381 24,400 774 Climbing Chicago Center
Sun 10:33:09 AM 42.4467 -84.9467 272° West 334 384 25,200 871 Climbing Chicago Center
Sun 10:34:11 AM 42.4494 -85.1011 271° West 341 392 26,200 823 Climbing Chicago Center
Sun 10:35:13 AM 42.4522 -85.2300 272° West 343 395 26,900 581 Climbing Chicago Center
Sun 10:36:15 AM 42.4547 -85.3600 272° West 345 397 27,400 484 Climbing Chicago Center
Sun 10:37:17 AM 42.4567 -85.4942 271° West 353 406 27,900 -242 Climbing Chicago Center
Sun 10:38:19 AM 42.4594 -85.6303 272° West 359 413 26,900 -1,548 Descending Chicago Center
Sun 10:39:21 AM 42.4608 -85.7642 271° West 356 410 24,700 -2,081 Descending Chicago Center
Sun 10:40:23 AM 42.4619 -85.8914 271° West 342 394 22,600 -2,081 Descending Chicago Center
Sun 10:41:25 AM 42.4644 -86.0397 271° West 327 376 20,400 -1,258 Descending Chicago Center
Sun 10:42:27 AM 42.4644 -86.1628 270° West 326 375 20,000 -194 Descending Chicago Center
Sun 10:43:29 AM 42.4647 -86.2947 270° West 345 397 20,000 -339 Level Chicago Center
Sun 10:44:31 AM 42.4633 -86.4269 269° West 351 404 19,300 -1,113 Descending Chicago Center
Sun 10:45:33 AM 42.4614 -86.5561 269° West 344 396 17,700 -1,597 Descending Chicago Center
Sun 10:46:35 AM 42.4606 -86.6822 270° West 335 386 16,000 -1,694 Descending Chicago Center
Sun 10:47:37 AM 42.4606 -86.8081 270° West 335 386 14,200 -1,839 Descending Chicago Center
Sun 10:48:39 AM 42.4575 -86.9575 268° West 331 381 12,200 -1,839 Descending Chicago Center
Sun 10:49:41 AM 42.4561 -87.0758 269° West 318 366 10,400 -1,500 Descending Chicago Center
Sun 10:50:43 AM 42.4372 -87.1750 256° West 277 319 9,100 -1,403 Descending Chicago Center
Sun 10:51:45 AM 42.4122 -87.2689 250° West 267 307 7,500 -1,016 Descending Chicago Center
Sun 10:52:47 AM 42.3858 -87.3667 250° West 277 319 7,000 -242 Descending Chicago Center
Sun 10:53:49 AM 42.3575 -87.4719 250° West 266 306 7,000  Level Chicago Center
Sun 10:54:51 AM 42.3125 -87.5456 230° Southwest 239 275 7,000  Level Chicago Center
Sun 10:55:53 AM 42.2619 -87.6011 219° Southwest 236 272 7,000 -339 Level Chicago Center
Sun 10:56:55 AM 42.2117 -87.6589 220° Southwest 238 274 6,300 -1,065 Descending Chicago Center
Sun 10:57:57 AM 42.1622 -87.7142 220° Southwest 235 270 4,800 -1,210 Descending Chicago Center
Sun 10:58:59 AM 42.1211 -87.7617 221° Southwest 211 243 3,800 -968 Descending Chicago Center

Login

Don't have an account? Register now (free) for customized features, flight alerts, and more!